Time;durP1;ratioP1;P1;durP2;ratioP2;P2;SDS_P1;SDS_P2;PMS_P1;PMS_P2;Temp;Humidity;BMP_temperature;BMP_pressure;BME280_temperature;BME280_humidity;BME280_pressure;Samples;Min_cycle;Max_cycle;Signal;HPM_P1;HPM_P2
2024/02/09 00:00:57;;;;;;;22.17;5.27;;;7.50;99.90;;;;;;5006058;28;20442;-60
2024/02/09 00:03:26;;;;;;;10.77;5.57;;;7.50;99.90;;;;;;5005313;28;20412;-60
2024/02/09 00:05:53;;;;;;;15.73;6.47;;;7.50;99.90;;;;;;5006130;28;20427;-60
2024/02/09 00:08:22;;;;;;;14.27;5.93;;;7.50;99.90;;;;;;4999446;28;20412;-60
2024/02/09 00:10:49;;;;;;;18.93;6.00;;;7.50;99.90;;;;;;5008658;28;20546;-60
2024/02/09 00:13:15;;;;;;;13.47;5.83;;;7.50;99.90;;;;;;5008830;28;20474;-60
2024/02/09 00:15:42;;;;;;;20.77;6.00;;;7.50;99.90;;;;;;5006475;28;20408;-60
2024/02/09 00:18:10;;;;;;;16.23;5.23;;;7.50;99.90;;;;;;5007831;28;20442;-60
2024/02/09 00:20:36;;;;;;;14.27;5.87;;;7.50;99.90;;;;;;5008155;28;20523;-61
2024/02/09 00:23:03;;;;;;;17.20;6.40;;;7.50;99.90;;;;;;5003619;28;20518;-59
2024/02/09 00:25:29;;;;;;;11.97;6.13;;;7.50;99.90;;;;;;5005693;28;20176;-60
2024/02/09 00:27:55;;;;;;;14.33;6.17;;;7.50;99.90;;;;;;5003878;28;20431;-60
2024/02/09 00:30:21;;;;;;;16.63;6.47;;;7.50;99.90;;;;;;5002995;28;20459;-59
2024/02/09 00:32:46;;;;;;;13.17;5.70;;;7.50;99.90;;;;;;5002192;28;20223;-62
2024/02/09 00:35:12;;;;;;;17.60;5.97;;;7.50;99.90;;;;;;5008884;28;20169;-59
2024/02/09 00:37:38;;;;;;;18.83;7.03;;;7.50;99.90;;;;;;5007082;28;20655;-58
2024/02/09 00:40:06;;;;;;;15.97;6.43;;;7.50;99.90;;;;;;5003747;28;20216;-59
2024/02/09 00:42:34;;;;;;;16.63;6.57;;;7.50;99.90;;;;;;5000263;28;20770;-59
2024/02/09 00:45:01;;;;;;;18.17;6.30;;;7.50;99.90;;;;;;5004683;28;20440;-59
2024/02/09 00:47:27;;;;;;;14.40;6.80;;;7.50;99.90;;;;;;4998021;28;20466;-60
2024/02/09 00:49:53;;;;;;;9.47;5.90;;;7.50;99.90;;;;;;5007909;28;20989;-60
2024/02/09 00:52:20;;;;;;;11.20;6.27;;;7.50;99.90;;;;;;5003376;28;20470;-59
2024/02/09 00:54:46;;;;;;;12.43;5.87;;;7.50;99.90;;;;;;5020655;28;20832;-58
2024/02/09 00:57:12;;;;;;;11.13;6.10;;;7.60;99.90;;;;;;5000807;28;20436;-59
2024/02/09 00:59:42;;;;;;;12.13;5.87;;;7.60;99.90;;;;;;5013112;28;20197;-59
2024/02/09 01:02:08;;;;;;;16.40;5.60;;;7.60;99.90;;;;;;5007100;28;20466;-59
2024/02/09 01:04:35;;;;;;;12.57;6.20;;;7.60;99.90;;;;;;5005461;28;20431;-59
2024/02/09 01:07:04;;;;;;;11.77;5.97;;;7.60;99.90;;;;;;5004054;28;20188;-59
2024/02/09 01:09:32;;;;;;;14.73;6.30;;;7.60;99.90;;;;;;5004763;28;20451;-60
2024/02/09 01:11:58;;;;;;;11.03;6.37;;;7.60;99.90;;;;;;5001944;28;20996;-59
2024/02/09 02:46:57;;;;;;;10.00;5.70;;;7.60;99.90;;;;;;5004839;28;20208;-59
2024/02/09 03:05:48;;;;;;;9.53;5.73;;;7.70;99.90;;;;;;5005645;28;20415;-59
2024/02/09 03:08:13;;;;;;;13.67;5.50;;;7.70;99.90;;;;;;5010395;28;20415;-60
2024/02/09 03:10:39;;;;;;;10.90;5.60;;;7.70;99.90;;;;;;5006226;28;20204;-59
2024/02/09 03:13:07;;;;;;;12.33;5.57;;;7.70;99.90;;;;;;5007608;28;20585;-60
2024/02/09 03:15:34;;;;;;;9.03;4.77;;;7.70;99.90;;;;;;5003272;28;20180;-60
2024/02/09 03:18:04;;;;;;;12.00;5.70;;;7.70;99.90;;;;;;5006528;28;20428;-60
2024/02/09 03:20:31;;;;;;;10.40;4.50;;;7.70;99.90;;;;;;5004715;28;20516;-61
2024/02/09 03:22:57;;;;;;;12.50;4.33;;;7.80;99.90;;;;;;5010436;28;20442;-60
2024/02/09 03:25:23;;;;;;;8.37;4.33;;;7.80;99.90;;;;;;5006744;28;20969;-60
2024/02/09 03:27:50;;;;;;;6.80;3.50;;;7.80;99.90;;;;;;5008876;28;20438;-60
2024/02/09 03:30:17;;;;;;;6.70;3.77;;;7.90;99.90;;;;;;5006278;28;20207;-60
2024/02/09 03:32:44;;;;;;;5.10;3.73;;;7.90;99.90;;;;;;5010819;28;20498;-61
2024/02/09 03:35:10;;;;;;;6.70;2.87;;;7.90;99.90;;;;;;5010496;28;20502;-61
2024/02/09 03:37:35;;;;;;;3.87;2.67;;;7.90;99.90;;;;;;5009595;28;20532;-60
2024/02/09 03:40:04;;;;;;;4.60;3.00;;;8.00;99.90;;;;;;5004131;28;20271;-59
2024/02/09 03:42:30;;;;;;;4.23;2.47;;;8.00;99.90;;;;;;5004681;28;20181;-60
2024/02/09 03:44:57;;;;;;;5.53;2.47;;;8.00;99.90;;;;;;5008398;28;20450;-60
2024/02/09 03:47:25;;;;;;;2.70;2.30;;;8.00;99.90;;;;;;5005993;28;20184;-60
2024/02/09 03:49:56;;;;;;;5.90;3.23;;;8.00;99.90;;;;;;5006054;28;20472;-60
2024/02/09 03:52:23;;;;;;;6.73;3.17;;;8.00;99.90;;;;;;5005023;28;20495;-60
2024/02/09 03:54:53;;;;;;;6.80;3.10;;;8.00;99.90;;;;;;5010053;28;20495;-60
2024/02/09 03:57:22;;;;;;;5.03;2.60;;;8.10;99.90;;;;;;5008870;28;20785;-59
2024/02/09 03:59:50;;;;;;;6.93;2.67;;;8.10;99.90;;;;;;5006797;28;20526;-60
2024/02/09 04:02:16;;;;;;;4.50;2.93;;;8.10;99.90;;;;;;5007665;28;20952;-60
2024/02/09 04:04:42;;;;;;;6.70;2.83;;;8.10;99.90;;;;;;5007120;28;20466;-60
2024/02/09 04:07:08;;;;;;;7.60;3.07;;;8.10;99.90;;;;;;5003874;28;20463;-60
2024/02/09 04:09:34;;;;;;;2.80;2.40;;;8.10;99.90;;;;;;5010264;28;21007;-60
2024/02/09 04:12:00;;;;;;;5.90;2.87;;;8.10;99.90;;;;;;5007776;28;20210;-59
2024/02/09 04:14:27;;;;;;;3.00;2.57;;;8.10;99.90;;;;;;5004229;28;20494;-59
2024/02/09 04:16:53;;;;;;;3.57;2.60;;;8.10;99.90;;;;;;5008655;28;20172;-60
2024/02/09 04:19:20;;;;;;;5.17;2.77;;;8.10;99.90;;;;;;5002051;28;20457;-59
2024/02/09 04:21:49;;;;;;;5.20;2.20;;;8.10;99.90;;;;;;5006573;28;20187;-59
2024/02/09 04:24:16;;;;;;;4.00;2.13;;;8.10;99.90;;;;;;5008382;28;20420;-61
2024/02/09 04:26:41;;;;;;;4.67;2.60;;;8.10;99.90;;;;;;5007800;28;20439;-60
2024/02/09 04:29:07;;;;;;;2.47;2.27;;;8.10;99.90;;;;;;5004037;28;20905;-60
2024/02/09 04:31:33;;;;;;;5.40;2.70;;;8.10;99.90;;;;;;5006462;28;20687;-60
2024/02/09 04:33:59;;;;;;;2.73;2.13;;;8.10;99.90;;;;;;5006455;28;20203;-60
2024/02/09 04:36:27;;;;;;;3.70;2.13;;;8.10;99.90;;;;;;5005434;28;20173;-60
2024/02/09 04:38:53;;;;;;;4.47;3.03;;;8.10;99.90;;;;;;5001709;28;21007;-60
2024/02/09 04:41:18;;;;;;;6.10;2.80;;;8.10;99.90;;;;;;5008282;28;20436;-60
2024/02/09 04:43:44;;;;;;;5.70;3.30;;;8.10;99.90;;;;;;5004598;28;20176;-60
2024/02/09 04:46:09;;;;;;;5.20;2.43;;;8.10;99.90;;;;;;5004630;28;20658;-60
2024/02/09 04:48:35;;;;;;;6.97;2.87;;;8.10;99.90;;;;;;5006266;28;20177;-60
2024/02/09 04:51:06;;;;;;;3.97;2.80;;;8.10;99.90;;;;;;5006172;28;20177;-60
2024/02/09 04:53:32;;;;;;;5.30;2.67;;;8.10;99.90;;;;;;5006816;28;20635;-59
2024/02/09 04:55:58;;;;;;;10.63;2.97;;;8.10;99.90;;;;;;4993401;28;20434;-60
2024/02/09 04:58:25;;;;;;;3.90;2.77;;;8.10;99.90;;;;;;5003713;28;20275;-60
2024/02/09 05:00:51;;;;;;;5.23;2.90;;;8.10;99.90;;;;;;5002727;28;20477;-59
2024/02/09 05:03:17;;;;;;;7.50;2.53;;;8.10;99.90;;;;;;4994035;28;20953;-59
2024/02/09 05:05:44;;;;;;;7.07;2.73;;;8.00;99.90;;;;;;5006970;28;20176;-62
2024/02/09 05:08:09;;;;;;;3.10;2.80;;;8.00;99.90;;;;;;5001554;28;20428;-61
2024/02/09 05:10:37;;;;;;;5.83;2.53;;;8.00;99.90;;;;;;5002886;28;20439;-61
2024/02/09 05:13:02;;;;;;;4.63;2.83;;;8.00;99.90;;;;;;5007332;28;20342;-61
2024/02/09 05:15:29;;;;;;;4.87;3.20;;;8.00;99.90;;;;;;5001890;28;20530;-61
2024/02/09 05:17:55;;;;;;;4.37;2.97;;;8.00;99.90;;;;;;4999394;28;20177;-61
2024/02/09 05:20:20;;;;;;;6.93;2.83;;;8.10;99.90;;;;;;5000273;28;20454;-60
2024/02/09 05:22:46;;;;;;;2.80;2.60;;;8.00;99.90;;;;;;5004854;28;20281;-61
2024/02/09 05:25:13;;;;;;;6.67;2.67;;;8.00;99.90;;;;;;5001498;28;20180;-60
2024/02/09 05:27:39;;;;;;;4.83;2.70;;;8.00;99.90;;;;;;5002434;28;20203;-60
2024/02/09 05:30:08;;;;;;;4.33;2.90;;;8.00;99.90;;;;;;5001819;28;20443;-61
2024/02/09 05:32:34;;;;;;;3.67;2.47;;;8.00;99.90;;;;;;5000621;28;20208;-60
2024/02/09 05:35:00;;;;;;;7.43;2.63;;;8.00;99.90;;;;;;5000256;28;20471;-59
2024/02/09 05:37:26;;;;;;;4.83;3.17;;;8.00;99.90;;;;;;4987363;28;20277;-61
2024/02/09 05:39:52;;;;;;;3.13;2.27;;;8.00;99.90;;;;;;5000247;28;20574;-61
2024/02/09 05:42:18;;;;;;;5.03;2.77;;;8.00;99.90;;;;;;5005664;28;20192;-61
2024/02/09 05:44:44;;;;;;;7.30;2.70;;;8.00;99.90;;;;;;5008585;28;20400;-61
2024/02/09 05:47:09;;;;;;;3.23;2.40;;;8.00;99.90;;;;;;5006130;28;20420;-61
2024/02/09 05:49:37;;;;;;;3.70;2.60;;;8.00;99.90;;;;;;5005434;28;20210;-61
2024/02/09 05:52:08;;;;;;;4.57;3.13;;;8.00;99.90;;;;;;5004534;28;20188;-62
2024/02/09 05:54:34;;;;;;;5.00;3.10;;;8.00;99.90;;;;;;5007389;28;20502;-61
2024/02/09 05:57:00;;;;;;;4.43;2.27;;;8.00;99.90;;;;;;5003250;28;20431;-61
2024/02/09 05:59:25;;;;;;;5.03;2.67;;;8.00;99.90;;;;;;5001247;28;20189;-58
2024/02/09 06:01:52;;;;;;;5.33;2.53;;;8.00;99.90;;;;;;5001015;28;20443;-60
2024/02/09 06:04:18;;;;;;;6.27;2.83;;;8.00;99.90;;;;;;5003104;28;20562;-60
2024/02/09 06:06:46;;;;;;;6.50;3.20;;;8.00;99.90;;;;;;5006725;28;20431;-60
2024/02/09 06:09:12;;;;;;;9.87;5.77;;;8.00;99.90;;;;;;5003651;28;20196;-61
2024/02/09 06:11:38;;;;;;;5.77;2.60;;;8.00;99.90;;;;;;5007462;28;20490;-60
2024/02/09 06:14:03;;;;;;;5.63;2.67;;;7.90;99.90;;;;;;4998412;28;20185;-59
2024/02/09 06:16:29;;;;;;;5.17;2.93;;;8.00;99.90;;;;;;5003270;28;20420;-60
2024/02/09 06:18:55;;;;;;;6.97;3.83;;;8.00;99.90;;;;;;5001532;28;20193;-61
2024/02/09 06:21:20;;;;;;;5.43;3.50;;;7.90;99.90;;;;;;5005078;28;20212;-61
2024/02/09 06:23:47;;;;;;;5.97;3.50;;;7.90;99.90;;;;;;5004939;28;20172;-60
2024/02/09 06:26:22;;;;;;;9.00;3.67;;;7.90;99.90;;;;;;5003289;28;20201;-61
2024/02/09 06:28:48;;;;;;;5.07;3.40;;;7.90;99.90;;;;;;5002890;28;20449;-61
2024/02/09 06:31:17;;;;;;;5.67;3.40;;;7.90;99.90;;;;;;5006717;28;20415;-60
2024/02/09 06:33:46;;;;;;;8.03;3.43;;;7.90;99.90;;;;;;4998205;28;20295;-59
2024/02/09 06:36:11;;;;;;;3.93;3.13;;;7.90;99.90;;;;;;5006789;28;20426;-61
2024/02/09 06:38:41;;;;;;;7.50;3.80;;;7.90;99.90;;;;;;5007627;28;20404;-61
2024/02/09 06:41:09;;;;;;;7.03;3.90;;;7.90;99.90;;;;;;5006835;28;20839;-61
2024/02/09 06:43:35;;;;;;;6.77;3.13;;;7.80;99.90;;;;;;5008789;28;20435;-60
2024/02/09 06:46:00;;;;;;;9.20;4.67;;;7.80;99.90;;;;;;5005565;28;20482;-61
2024/02/09 06:48:28;;;;;;;5.93;4.33;;;7.80;99.90;;;;;;5012406;28;20947;-59
2024/02/09 06:50:53;;;;;;;8.20;4.43;;;7.80;99.90;;;;;;5009756;28;20268;-60
2024/02/09 06:53:22;;;;;;;9.93;4.73;;;7.80;99.90;;;;;;5009105;28;21222;-60
2024/02/09 06:55:50;;;;;;;8.37;4.20;;;7.80;99.90;;;;;;5009671;28;20177;-58
2024/02/09 06:58:16;;;;;;;7.73;4.90;;;7.70;99.90;;;;;;5010547;28;20412;-59
2024/02/09 07:00:44;;;;;;;7.47;4.67;;;7.70;99.90;;;;;;5009392;28;20438;-59
2024/02/09 07:03:15;;;;;;;7.83;5.00;;;7.70;99.90;;;;;;5000266;28;20268;-60
2024/02/09 07:05:41;;;;;;;6.80;5.03;;;7.70;99.90;;;;;;5009126;28;20427;-60
2024/02/09 07:08:07;;;;;;;8.33;5.13;;;7.60;99.90;;;;;;5003100;28;20411;-59
2024/02/09 07:10:34;;;;;;;5.40;4.43;;;7.60;99.90;;;;;;5009520;28;20193;-61
2024/02/09 07:13:00;;;;;;;6.47;4.20;;;7.60;99.90;;;;;;5009738;28;20996;-60
2024/02/09 07:15:25;;;;;;;9.20;4.40;;;7.60;99.90;;;;;;5009695;28;20430;-61
2024/02/09 07:17:56;;;;;;;6.07;4.20;;;7.60;99.90;;;;;;5010980;28;20454;-59
2024/02/09 07:20:23;;;;;;;10.03;3.93;;;7.60;99.90;;;;;;5010117;28;20885;-60
2024/02/09 07:22:48;;;;;;;6.87;4.10;;;7.60;99.90;;;;;;5006364;28;20435;-59
2024/02/09 07:25:14;;;;;;;6.43;3.60;;;7.70;99.90;;;;;;5008958;28;20420;-58
2024/02/09 07:27:40;;;;;;;6.33;4.37;;;7.60;99.90;;;;;;5005682;28;20187;-59
2024/02/09 07:30:06;;;;;;;16.37;5.10;;;7.70;99.90;;;;;;5008609;28;20695;-59
2024/02/09 07:32:32;;;;;;;7.23;4.80;;;7.70;99.90;;;;;;5004218;28;20596;-60
2024/02/09 07:34:58;;;;;;;8.90;5.30;;;7.70;99.90;;;;;;5009071;28;20416;-60
2024/02/09 07:37:25;;;;;;;15.37;6.00;;;7.70;99.90;;;;;;5017613;28;20184;-60
2024/02/09 07:39:51;;;;;;;10.03;5.17;;;7.70;99.90;;;;;;5006209;28;20197;-60
2024/02/09 07:42:18;;;;;;;19.07;4.53;;;7.70;99.90;;;;;;5007688;28;20439;-59
2024/02/09 07:44:44;;;;;;;10.63;5.10;;;7.80;99.90;;;;;;5009070;28;20181;-60
2024/02/09 07:47:10;;;;;;;12.10;5.03;;;7.80;99.90;;;;;;5006279;28;20890;-61
2024/02/09 07:49:36;;;;;;;9.77;5.10;;;7.80;99.90;;;;;;5004148;28;20598;-60
2024/02/09 07:52:03;;;;;;;7.77;4.47;;;7.80;99.90;;;;;;5011610;28;20450;-60
2024/02/09 07:54:32;;;;;;;7.10;4.13;;;7.90;99.90;;;;;;5010174;28;20169;-61
2024/02/09 07:56:59;;;;;;;7.23;4.00;;;7.90;99.90;;;;;;5010559;28;20435;-60
2024/02/09 07:59:24;;;;;;;6.63;3.57;;;8.00;99.90;;;;;;5008262;28;21006;-60
2024/02/09 08:01:51;;;;;;;6.57;4.80;;;8.00;99.90;;;;;;5008254;28;20442;-61
2024/02/09 08:04:20;;;;;;;10.83;4.77;;;8.00;99.90;;;;;;5005765;28;20207;-60
2024/02/09 08:06:47;;;;;;;10.50;6.00;;;8.10;99.90;;;;;;5007249;28;20494;-60
2024/02/09 08:09:13;;;;;;;8.67;4.67;;;8.10;99.90;;;;;;5007313;28;21630;-61
2024/02/09 08:11:42;;;;;;;4.57;3.80;;;8.10;99.90;;;;;;5008341;28;20459;-60
2024/02/09 08:14:08;;;;;;;9.27;4.30;;;8.10;99.90;;;;;;5009356;28;20185;-60
2024/02/09 08:16:33;;;;;;;6.57;4.03;;;8.20;99.90;;;;;;5010147;28;20407;-60
2024/02/09 08:18:59;;;;;;;7.90;3.27;;;8.20;99.90;;;;;;5008893;28;20455;-61
2024/02/09 08:21:25;;;;;;;5.90;3.30;;;8.20;99.90;;;;;;5007528;28;20528;-60
2024/02/09 08:23:50;;;;;;;6.37;3.57;;;8.20;99.90;;;;;;5007517;28;20268;-60
2024/02/09 08:26:16;;;;;;;5.80;3.10;;;8.30;99.90;;;;;;5007991;28;20271;-60
2024/02/09 08:28:47;;;;;;;5.53;2.90;;;8.30;99.90;;;;;;5006046;28;20258;-60
2024/02/09 08:31:16;;;;;;;8.37;3.83;;;8.30;99.90;;;;;;5007456;28;20208;-60
2024/02/09 08:33:49;;;;;;;10.70;3.40;;;8.30;99.90;;;;;;5006658;28;20431;-60
2024/02/09 08:36:22;;;;;;;8.13;3.77;;;8.30;99.90;;;;;;5005669;28;20451;-60
2024/02/09 08:38:51;;;;;;;7.67;3.80;;;8.30;99.90;;;;;;5008015;28;20474;-61
2024/02/09 08:41:20;;;;;;;5.93;3.87;;;8.30;99.90;;;;;;5004033;28;20465;-60
2024/02/09 08:43:46;;;;;;;10.10;3.60;;;8.30;99.90;;;;;;5000783;28;20542;-60
2024/02/09 08:46:12;;;;;;;12.13;3.23;;;8.30;99.90;;;;;;5008626;28;20412;-60
2024/02/09 08:48:38;;;;;;;5.73;3.37;;;8.40;99.90;;;;;;5005484;28;20419;-60
2024/02/09 08:51:03;;;;;;;11.27;3.40;;;8.40;99.90;;;;;;5004583;28;20176;-60
2024/02/09 08:53:29;;;;;;;3.70;2.97;;;8.40;99.90;;;;;;5007819;28;20232;-60
2024/02/09 08:55:54;;;;;;;9.43;3.33;;;8.40;99.90;;;;;;5006798;28;20168;-60
2024/02/09 08:58:20;;;;;;;8.33;3.20;;;8.40;99.90;;;;;;5007524;28;20199;-61
2024/02/09 09:00:46;;;;;;;7.27;3.83;;;8.50;99.90;;;;;;5009798;28;20246;-60
2024/02/09 09:03:13;;;;;;;3.90;2.87;;;8.50;99.90;;;;;;4996625;28;20176;-60
2024/02/09 09:05:40;;;;;;;4.33;3.50;;;8.60;99.90;;;;;;5003967;28;20615;-61
2024/02/09 09:08:07;;;;;;;7.43;3.30;;;8.60;99.90;;;;;;5001740;28;20537;-59
2024/02/09 09:10:34;;;;;;;5.30;2.53;;;8.70;99.90;;;;;;5006889;28;20451;-59
2024/02/09 09:13:00;;;;;;;5.53;3.07;;;8.80;99.90;;;;;;5006878;28;20496;-61
2024/02/09 09:15:25;;;;;;;7.53;4.47;;;8.80;99.90;;;;;;5008280;28;20926;-62
2024/02/09 09:17:51;;;;;;;5.90;3.30;;;8.90;99.90;;;;;;5012842;28;20188;-61
2024/02/09 09:20:17;;;;;;;3.97;2.60;;;9.00;99.90;;;;;;5003156;28;20705;-60
2024/02/09 09:22:42;;;;;;;3.40;2.60;;;9.10;99.90;;;;;;5007296;28;20172;-61
2024/02/09 09:25:08;;;;;;;4.40;2.70;;;9.10;99.90;;;;;;5002781;28;21981;-61
2024/02/09 09:27:35;;;;;;;10.80;3.50;;;9.20;99.90;;;;;;5008385;28;20264;-59
2024/02/09 09:30:07;;;;;;;14.90;3.30;;;9.20;99.90;;;;;;5009355;28;20200;-60
2024/02/09 09:32:33;;;;;;;4.33;3.13;;;9.20;99.90;;;;;;5003653;28;20463;-60
2024/02/09 09:35:00;;;;;;;6.73;3.50;;;9.30;99.90;;;;;;5007206;28;20987;-60
2024/02/09 09:37:26;;;;;;;6.80;3.13;;;9.30;99.90;;;;;;5004521;28;20448;-57
2024/02/09 09:39:51;;;;;;;4.70;2.90;;;9.30;99.90;;;;;;5006019;28;20508;-58
2024/02/09 09:42:17;;;;;;;4.73;3.30;;;9.30;99.90;;;;;;5008480;28;20431;-58
2024/02/09 09:44:43;;;;;;;3.13;2.63;;;9.30;99.90;;;;;;5007757;28;20183;-58
2024/02/09 09:47:12;;;;;;;9.57;3.10;;;9.30;99.90;;;;;;5007932;28;20187;-57
2024/02/09 09:49:39;;;;;;;4.33;2.53;;;9.30;99.90;;;;;;5011151;28;20192;-60
2024/02/09 09:52:20;;;;;;;5.50;2.47;;;9.30;99.90;;;;;;5008045;28;20447;-60
2024/02/09 09:54:49;;;;;;;3.27;2.43;;;9.30;99.90;;;;;;5001291;28;20836;-59
2024/02/09 09:57:14;;;;;;;4.20;2.07;;;9.30;99.90;;;;;;5005545;28;20515;-60
2024/02/09 09:59:40;;;;;;;3.50;2.23;;;9.30;99.90;;;;;;5007155;28;21171;-61
2024/02/09 10:02:07;;;;;;;5.57;2.83;;;9.30;99.90;;;;;;5005974;28;20207;-60
2024/02/09 10:04:32;;;;;;;6.00;2.70;;;9.40;99.90;;;;;;5000739;28;20807;-60
2024/02/09 10:07:00;;;;;;;4.57;3.53;;;9.40;99.90;;;;;;4996148;28;20435;-61
2024/02/09 10:09:26;;;;;;;4.87;3.30;;;9.40;99.90;;;;;;5001280;28;20575;-60
2024/02/09 10:11:52;;;;;;;4.80;3.30;;;9.50;99.90;;;;;;5008685;28;20974;-59
2024/02/09 10:14:20;;;;;;;5.43;2.60;;;9.60;99.90;;;;;;5007485;28;20242;-59
2024/02/09 10:16:46;;;;;;;3.83;2.03;;;9.60;99.90;;;;;;5010714;28;20465;-60
2024/02/09 10:19:16;;;;;;;6.67;2.80;;;9.60;99.90;;;;;;5008340;28;20450;-60
2024/02/09 10:21:42;;;;;;;7.83;3.00;;;9.70;99.90;;;;;;5008904;28;20173;-61
2024/02/09 10:24:10;;;;;;;3.80;2.60;;;9.70;99.90;;;;;;5010848;28;20438;-59
2024/02/09 10:26:36;;;;;;;4.00;2.07;;;9.80;99.90;;;;;;5005406;28;20968;-60
2024/02/09 10:29:03;;;;;;;5.80;2.40;;;9.90;99.90;;;;;;5005460;28;20480;-59
2024/02/09 10:31:30;;;;;;;3.00;2.00;;;9.90;99.90;;;;;;5006339;28;20411;-60
2024/02/09 10:33:56;;;;;;;3.73;2.23;;;10.00;99.90;;;;;;5011473;28;20525;-58
2024/02/09 10:36:23;;;;;;;4.27;2.63;;;10.00;99.90;;;;;;5001526;28;20850;-60
2024/02/09 10:38:49;;;;;;;3.43;1.80;;;10.10;99.90;;;;;;5006106;28;20242;-60
2024/02/09 10:41:17;;;;;;;4.30;2.03;;;10.10;99.90;;;;;;5007620;28;20431;-59
2024/02/09 10:43:51;;;;;;;3.87;1.93;;;10.20;99.90;;;;;;5011772;28;20248;-60
2024/02/09 10:46:17;;;;;;;1.53;1.43;;;10.20;99.90;;;;;;5006446;28;20454;-58
2024/02/09 10:48:48;;;;;;;2.63;2.20;;;10.30;99.90;;;;;;5010352;28;20412;-60
2024/02/09 10:51:16;;;;;;;2.63;2.10;;;10.30;99.90;;;;;;5007677;28;20583;-61
2024/02/09 10:54:00;;;;;;;4.90;1.80;;;10.40;99.90;;;;;;5006080;28;20462;-60
2024/02/09 10:56:27;;;;;;;2.50;2.00;;;10.50;99.90;;;;;;5000698;28;20426;-60
2024/02/09 10:58:55;;;;;;;1.73;1.60;;;10.50;99.90;;;;;;5009202;28;20543;-60
2024/02/09 11:01:22;;;;;;;2.43;1.70;;;10.50;99.90;;;;;;5012244;28;20478;-60
2024/02/09 11:03:49;;;;;;;2.80;2.60;;;10.50;99.90;;;;;;5011660;28;20489;-60
2024/02/09 11:06:15;;;;;;;1.43;1.33;;;10.50;99.90;;;;;;5006415;28;20435;-60
2024/02/09 11:08:41;;;;;;;2.97;2.13;;;10.50;99.90;;;;;;5010375;28;20466;-60
2024/02/09 11:11:07;;;;;;;2.33;1.77;;;10.50;99.90;;;;;;5006012;28;20187;-60
2024/02/09 11:13:33;;;;;;;2.90;1.93;;;10.40;99.90;;;;;;5010973;28;20455;-60
2024/02/09 11:16:02;;;;;;;9.27;2.10;;;10.40;99.90;;;;;;5011480;28;20175;-59
2024/02/09 11:18:37;;;;;;;1.73;1.60;;;10.40;99.90;;;;;;5007981;28;20430;-61
2024/02/09 11:21:09;;;;;;;5.40;2.07;;;10.50;99.90;;;;;;5008302;28;20430;-60
2024/02/09 11:23:41;;;;;;;3.30;1.90;;;10.50;99.90;;;;;;5004169;28;20435;-60
2024/02/09 11:26:13;;;;;;;3.27;2.00;;;10.50;99.90;;;;;;5007543;28;20494;-60
2024/02/09 11:28:39;;;;;;;1.90;1.60;;;10.50;99.90;;;;;;5003398;28;20448;-60
2024/02/09 11:31:12;;;;;;;2.30;1.80;;;10.50;99.90;;;;;;5010763;28;20504;-59
2024/02/09 11:33:41;;;;;;;6.20;1.50;;;10.50;99.90;;;;;;5007690;28;20491;-60
2024/02/09 11:36:07;;;;;;;2.10;1.50;;;10.50;99.90;;;;;;5007343;28;20459;-61
2024/02/09 11:38:33;;;;;;;3.03;1.60;;;10.40;99.90;;;;;;5005925;28;20424;-59
2024/02/09 11:40:59;;;;;;;6.23;2.60;;;10.40;99.90;;;;;;5009891;28;20191;-58
2024/02/09 11:43:25;;;;;;;3.20;2.50;;;10.40;99.90;;;;;;5006876;28;20439;-56
2024/02/09 11:45:53;;;;;;;7.87;2.40;;;10.40;99.90;;;;;;5008890;28;20184;-54
2024/02/09 11:48:21;;;;;;;3.67;2.27;;;10.40;99.90;;;;;;5010920;28;20413;-57
2024/02/09 11:50:47;;;;;;;4.20;2.30;;;10.40;99.90;;;;;;5009595;28;20467;-58
2024/02/09 11:53:12;;;;;;;2.53;2.20;;;10.40;99.90;;;;;;5006752;28;20463;-55
2024/02/09 11:55:39;;;;;;;4.60;2.50;;;10.40;99.90;;;;;;5011298;28;20828;-61
2024/02/09 11:58:07;;;;;;;4.23;2.40;;;10.50;99.90;;;;;;5010178;28;20664;-60
2024/02/09 12:00:33;;;;;;;3.30;1.70;;;10.50;99.90;;;;;;5008705;28;20985;-58
2024/02/09 12:02:59;;;;;;;4.10;2.00;;;10.40;99.90;;;;;;5008920;28;20438;-61
2024/02/09 12:05:26;;;;;;;2.70;2.00;;;10.40;99.90;;;;;;5009918;28;20184;-58
2024/02/09 12:07:52;;;;;;;2.10;1.87;;;10.40;99.90;;;;;;5002584;28;20480;-61
2024/02/09 12:10:19;;;;;;;2.20;2.00;;;10.40;99.90;;;;;;5002682;28;20483;-54
2024/02/09 12:12:48;;;;;;;4.03;1.90;;;10.40;99.90;;;;;;5002986;28;20447;-58
2024/02/09 12:15:14;;;;;;;7.30;1.83;;;10.40;99.90;;;;;;4998409;28;20430;-59
2024/02/09 12:17:40;;;;;;;3.53;1.37;;;10.40;99.90;;;;;;5000688;28;20439;-59
2024/02/09 12:20:10;;;;;;;2.73;2.10;;;10.40;99.90;;;;;;5002684;28;20196;-59
2024/02/09 12:22:39;;;;;;;2.33;1.73;;;10.50;99.90;;;;;;5002919;28;20223;-58
2024/02/09 12:25:05;;;;;;;2.87;2.00;;;10.50;99.90;;;;;;5002660;28;20470;-59
2024/02/09 12:27:31;;;;;;;2.93;2.10;;;10.60;99.90;;;;;;5007119;28;21082;-58
2024/02/09 12:29:57;;;;;;;3.10;2.00;;;10.60;99.90;;;;;;5007584;28;20431;-59
2024/02/09 12:32:22;;;;;;;2.77;2.13;;;10.70;99.90;;;;;;5009300;28;20205;-58
2024/02/09 12:34:53;;;;;;;3.43;2.20;;;10.70;99.90;;;;;;5010657;28;20173;-60
2024/02/09 12:37:18;;;;;;;6.43;2.37;;;10.70;99.90;;;;;;5005741;28;20172;-61
2024/02/09 12:39:48;;;;;;;3.77;1.87;;;10.70;99.90;;;;;;5007686;28;20482;-59
2024/02/09 12:42:14;;;;;;;4.10;1.67;;;10.70;99.90;;;;;;5005755;28;20635;-59
2024/02/09 12:44:44;;;;;;;2.50;1.93;;;10.70;99.90;;;;;;5004518;28;20526;-59
2024/02/09 12:47:09;;;;;;;9.83;2.30;;;10.70;99.90;;;;;;5004059;28;20200;-59
2024/02/09 12:49:36;;;;;;;4.50;2.03;;;10.70;99.90;;;;;;5010406;28;20461;-58
2024/02/09 12:52:06;;;;;;;3.23;2.00;;;10.70;99.90;;;;;;5006788;28;20208;-59
2024/02/09 12:54:33;;;;;;;3.77;2.67;;;10.70;99.90;;;;;;5009639;28;20423;-59
2024/02/09 12:56:59;;;;;;;3.97;2.80;;;10.70;99.90;;;;;;5004006;28;20422;-58
2024/02/09 12:59:26;;;;;;;7.87;4.10;;;10.80;99.90;;;;;;5007057;28;20522;-61
2024/02/09 13:01:52;;;;;;;11.00;5.60;;;10.70;99.90;;;;;;5004403;28;20863;-61
2024/02/09 13:04:18;;;;;;;10.70;5.23;;;10.80;99.90;;;;;;5005842;28;20456;-58
2024/02/09 13:06:44;;;;;;;8.30;5.10;;;10.80;99.90;;;;;;5008305;28;20255;-60
2024/02/09 13:09:09;;;;;;;10.83;5.53;;;10.70;99.90;;;;;;5004032;28;20204;-60
2024/02/09 13:11:36;;;;;;;6.50;5.23;;;10.70;99.90;;;;;;5006237;28;20188;-60
2024/02/09 13:14:01;;;;;;;6.90;4.80;;;10.70;99.90;;;;;;5007342;28;20192;-60
2024/02/09 13:16:27;;;;;;;13.60;4.90;;;10.60;99.90;;;;;;5004590;28;20470;-59
2024/02/09 13:18:54;;;;;;;12.33;4.17;;;10.60;99.90;;;;;;5010964;28;20193;-60
2024/02/09 13:21:20;;;;;;;5.47;4.00;;;10.60;99.90;;;;;;5004546;28;20256;-60
2024/02/09 13:23:46;;;;;;;6.57;3.50;;;10.60;99.90;;;;;;5006990;28;20850;-59
2024/02/09 13:26:15;;;;;;;7.30;3.60;;;10.60;99.90;;;;;;5001474;28;20466;-60
2024/02/09 13:28:41;;;;;;;8.43;3.60;;;10.60;99.90;;;;;;5001121;28;22472;-60
2024/02/09 13:31:10;;;;;;;7.57;4.40;;;10.60;99.90;;;;;;5006436;28;20419;-59
2024/02/09 13:33:37;;;;;;;9.80;4.23;;;10.50;99.90;;;;;;5005716;28;20458;-61
2024/02/09 13:36:05;;;;;;;7.07;4.30;;;10.50;99.90;;;;;;5008675;28;20493;-60
2024/02/09 13:38:35;;;;;;;7.73;4.30;;;10.50;99.90;;;;;;5005409;28;20794;-60
2024/02/09 13:41:01;;;;;;;7.70;5.00;;;10.50;99.90;;;;;;5008015;28;20510;-60
2024/02/09 13:43:27;;;;;;;11.40;5.10;;;10.50;99.90;;;;;;4991345;28;20503;-61
2024/02/09 13:45:54;;;;;;;8.20;4.83;;;10.50;99.90;;;;;;5005860;28;20419;-61
2024/02/09 13:48:19;;;;;;;9.50;4.80;;;10.40;99.90;;;;;;5005343;28;20427;-61
2024/02/09 13:50:45;;;;;;;6.73;4.83;;;10.40;99.90;;;;;;5008515;28;20969;-60
2024/02/09 13:53:11;;;;;;;8.90;5.07;;;10.40;99.90;;;;;;5006306;28;20204;-61
2024/02/09 13:55:38;;;;;;;7.37;4.40;;;10.40;99.90;;;;;;5000794;28;20183;-61
2024/02/09 13:58:06;;;;;;;11.53;5.70;;;10.40;99.90;;;;;;5006556;28;20164;-62
2024/02/09 14:00:32;;;;;;;6.97;4.13;;;10.40;99.90;;;;;;5001291;28;21055;-60
2024/02/09 14:02:57;;;;;;;7.27;4.30;;;10.40;99.90;;;;;;5008098;28;20433;-60
2024/02/09 14:05:23;;;;;;;9.47;4.50;;;10.40;99.90;;;;;;5003597;28;20246;-61
2024/02/09 14:07:50;;;;;;;6.90;3.60;;;10.40;99.90;;;;;;5009074;28;20306;-61
2024/02/09 14:10:16;;;;;;;8.83;4.03;;;10.30;99.90;;;;;;5001990;28;20201;-60
2024/02/09 14:12:42;;;;;;;6.63;4.00;;;10.30;99.90;;;;;;5004618;28;20474;-60
2024/02/09 14:15:10;;;;;;;7.47;4.30;;;10.30;99.90;;;;;;5000531;28;20670;-60
2024/02/09 14:17:37;;;;;;;7.20;4.47;;;10.20;99.90;;;;;;4998113;28;20231;-61
2024/02/09 14:20:04;;;;;;;6.30;3.30;;;10.10;99.90;;;;;;5008739;28;20827;-61
2024/02/09 14:22:30;;;;;;;4.60;3.00;;;10.10;99.90;;;;;;5007092;28;20411;-60
2024/02/09 14:24:59;;;;;;;4.83;3.17;;;10.00;99.90;;;;;;5007648;28;20824;-59
2024/02/09 14:27:25;;;;;;;7.70;4.20;;;10.00;99.90;;;;;;5000108;28;20441;-60
2024/02/09 14:29:52;;;;;;;6.60;3.97;;;10.00;99.90;;;;;;5007660;28;20460;-60
2024/02/09 14:32:18;;;;;;;8.43;4.30;;;10.00;99.90;;;;;;5000289;28;20455;-60
2024/02/09 14:34:44;;;;;;;6.17;4.60;;;10.00;99.90;;;;;;5002311;28;20455;-61
2024/02/09 14:37:10;;;;;;;9.97;7.20;;;10.00;99.90;;;;;;5004820;28;20423;-59
2024/02/09 14:39:36;;;;;;;10.90;8.00;;;9.90;99.90;;;;;;5007544;28;20462;-60